DPA weather

Dupage Airport
Chicago/West Chicago, Illinois, United States

Public forecast

Using degrees Fahrenheit for public forecast. Weather courtesy of forecast.io.

Current aviation weather report (METAR) for Dupage Airport

Retrieved 2019/10/16 05:52 UTC (24 minutes ago):

KDPA 160552Z 29016G26KT 10SM CLR 08/02 A2981 RMK AO2 PK WND 29028/0526 SLP094 T00830022 10144 20083 401830028 53001

Aviation forecast (TAF) for Dupage Airport

Retrieved 2019/10/16 06:36 UTC (0 seconds ago):

TAF KDPA 160534Z 1606/1706 29016G26KT P6SM OVC035 FM160800 31019G30KT P6SM BKN025 OVC035 FM161800 32016G25KT P6SM BKN035 FM170000 31010KT P6SM BKN040 BKN100